createdAt,value
2023-02-13T00:00:38.920Z,9.80
2023-02-13T00:03:05.761Z,9.80
2023-02-13T00:05:32.598Z,9.80
2023-02-13T00:07:59.368Z,9.80
2023-02-13T00:10:26.489Z,9.80
2023-02-13T00:12:53.653Z,9.90
2023-02-13T00:15:20.418Z,9.80
2023-02-13T00:17:47.164Z,9.80
2023-02-13T00:20:14.108Z,9.70
2023-02-13T00:22:41.183Z,9.80
2023-02-13T00:25:09.336Z,9.70
2023-02-13T00:27:36.158Z,9.70
2023-02-13T00:30:07.093Z,9.80
2023-02-13T00:32:33.838Z,9.80
2023-02-13T00:35:00.627Z,9.80
2023-02-13T00:37:27.428Z,9.80
2023-02-13T00:39:58.297Z,9.80
2023-02-13T00:42:26.996Z,9.80
2023-02-13T00:44:54.584Z,9.70
2023-02-13T00:47:23.849Z,9.80
2023-02-13T00:49:50.616Z,9.70
2023-02-13T00:52:17.315Z,9.80
2023-02-13T00:54:44.115Z,9.70
2023-02-13T00:57:10.891Z,9.70
2023-02-13T00:59:37.576Z,9.70
2023-02-13T01:02:04.430Z,9.60
2023-02-13T01:04:31.238Z,9.70
2023-02-13T01:06:58.283Z,9.70
2023-02-13T01:09:25.864Z,9.70
2023-02-13T01:11:52.806Z,9.70
2023-02-13T01:14:20.921Z,9.70
2023-02-13T01:16:47.773Z,9.80
2023-02-13T01:19:14.689Z,9.80
2023-02-13T01:21:43.363Z,9.80
2023-02-13T01:24:10.209Z,9.80
2023-02-13T01:26:36.994Z,9.80
2023-02-13T01:29:04.094Z,9.80
2023-02-13T01:31:31.009Z,9.80
2023-02-13T01:33:58.411Z,9.80
2023-02-13T01:36:26.274Z,9.70
2023-02-13T01:38:55.531Z,9.70
2023-02-13T01:41:23.653Z,9.60
2023-02-13T01:43:59.429Z,9.60
2023-02-13T01:46:36.892Z,9.60
2023-02-13T01:49:18.648Z,9.60
2023-02-13T01:51:46.891Z,9.50
2023-02-13T01:54:21.808Z,9.60
2023-02-13T01:56:55.468Z,9.50
2023-02-13T01:59:31.599Z,9.40
2023-02-13T02:01:59.936Z,9.30
2023-02-13T02:04:30.775Z,9.30
2023-02-13T02:07:02.676Z,9.30
2023-02-13T02:09:34.089Z,9.30
2023-02-13T02:12:38.059Z,9.30
2023-02-13T02:15:06.254Z,9.30
2023-02-13T02:17:33.142Z,9.40
2023-02-13T02:20:13.820Z,9.30
2023-02-13T02:23:05.056Z,9.30
2023-02-13T02:26:00.998Z,9.30
2023-02-13T02:29:13.895Z,9.30
2023-02-13T02:32:09.680Z,9.30
2023-02-13T02:35:00.056Z,9.40
2023-02-13T02:37:56.615Z,9.30
2023-02-13T02:40:31.851Z,9.40
2023-02-13T02:43:30.522Z,9.40
2023-02-13T02:46:24.936Z,9.40
2023-02-13T02:49:19.401Z,9.30
2023-02-13T02:52:00.832Z,9.30
2023-02-13T02:55:03.955Z,9.30
2023-02-13T02:57:52.807Z,9.20
2023-02-13T03:00:42.050Z,9.20
2023-02-13T03:03:37.741Z,9.20
2023-02-13T03:06:23.923Z,9.20
2023-02-13T03:09:20.697Z,9.20
2023-02-13T03:12:12.292Z,9.20
2023-02-13T03:14:39.251Z,9.20
2023-02-13T03:17:28.027Z,9.30
2023-02-13T03:20:16.384Z,9.30
2023-02-13T03:23:11.323Z,9.40
2023-02-13T03:25:41.107Z,9.40
2023-02-13T03:28:42.236Z,9.30
2023-02-13T03:31:32.817Z,9.30
2023-02-13T03:34:10.686Z,9.30
2023-02-13T03:37:19.180Z,9.30
2023-02-13T03:40:07.576Z,9.40
2023-02-13T03:43:13.914Z,9.40
2023-02-13T03:45:53.984Z,9.40
2023-02-13T03:48:44.664Z,9.40
2023-02-13T03:51:14.378Z,9.40
2023-02-13T03:53:43.653Z,9.50
2023-02-13T03:56:31.949Z,9.50
2023-02-13T03:59:15.244Z,9.50
2023-02-13T04:01:54.669Z,9.50
2023-02-13T04:04:36.552Z,9.50
2023-02-13T04:07:05.403Z,9.40
2023-02-13T04:09:35.616Z,9.40
2023-02-13T04:12:09.340Z,9.40
2023-02-13T04:14:42.156Z,9.40
2023-02-13T04:17:22.986Z,9.40
2023-02-13T04:19:49.857Z,9.40
2023-02-13T04:22:17.000Z,9.40
2023-02-13T04:24:43.810Z,9.40
2023-02-13T04:27:17.295Z,9.30
2023-02-13T04:29:44.046Z,9.30
2023-02-13T04:32:11.734Z,9.30
2023-02-13T04:34:38.638Z,9.30
2023-02-13T04:37:05.440Z,9.30
2023-02-13T04:39:32.171Z,9.20
2023-02-13T04:41:58.968Z,9.20
2023-02-13T04:44:25.651Z,9.10
2023-02-13T04:46:52.433Z,9.10
2023-02-13T04:49:20.742Z,9.10
2023-02-13T04:51:47.519Z,9.00
2023-02-13T04:54:14.610Z,9.00
2023-02-13T04:56:41.356Z,9.00
2023-02-13T04:59:08.091Z,9.00
2023-02-13T05:01:34.965Z,9.00
2023-02-13T05:04:01.836Z,9.00
2023-02-13T05:06:28.621Z,8.90
2023-02-13T05:08:55.391Z,9.00
2023-02-13T05:11:22.161Z,8.90
2023-02-13T05:13:48.908Z,8.80
2023-02-13T05:16:15.681Z,8.80
2023-02-13T05:18:42.444Z,8.80
2023-02-13T05:21:27.672Z,8.70
2023-02-13T05:23:54.550Z,8.60
2023-02-13T05:26:21.335Z,8.60
2023-02-13T05:29:06.812Z,8.60
2023-02-13T05:31:44.093Z,8.50
2023-02-13T05:34:10.975Z,8.50
2023-02-13T05:36:37.754Z,8.50
2023-02-13T05:39:04.821Z,8.40
2023-02-13T05:41:31.855Z,8.40
2023-02-13T05:43:58.641Z,8.30
2023-02-13T05:46:25.721Z,8.30
2023-02-13T05:48:54.556Z,8.30
2023-02-13T05:51:21.670Z,8.40
2023-02-13T05:53:49.933Z,8.40
2023-02-13T05:56:16.854Z,8.40
2023-02-13T05:58:45.350Z,8.40
2023-02-13T06:01:12.774Z,8.30
2023-02-13T06:03:40.551Z,8.30
2023-02-13T06:06:07.513Z,8.30
2023-02-13T06:08:34.390Z,8.30
2023-02-13T06:11:01.698Z,8.30
2023-02-13T06:13:28.677Z,8.30
2023-02-13T06:15:55.777Z,8.30
2023-02-13T06:18:23.975Z,8.30
2023-02-13T06:20:50.708Z,8.20
2023-02-13T06:23:17.462Z,8.20
2023-02-13T06:25:44.190Z,8.20
2023-02-13T06:28:10.976Z,8.20
2023-02-13T06:30:37.845Z,8.20
2023-02-13T06:33:04.621Z,8.10
2023-02-13T06:35:31.420Z,8.10
2023-02-13T06:37:58.194Z,8.10
2023-02-13T06:40:24.915Z,8.10
2023-02-13T06:42:51.670Z,8.10
2023-02-13T06:45:18.536Z,8.10
2023-02-13T06:47:47.118Z,8.00
2023-02-13T06:50:15.936Z,8.00
2023-02-13T06:52:50.907Z,8.00
2023-02-13T06:55:18.636Z,8.00
2023-02-13T06:57:45.891Z,8.00
2023-02-13T07:00:14.569Z,8.00
2023-02-13T07:02:42.793Z,8.00
2023-02-13T07:05:11.591Z,7.90
2023-02-13T07:07:39.963Z,7.90
2023-02-13T07:10:09.130Z,7.80
2023-02-13T07:12:36.781Z,7.70
2023-02-13T07:15:08.186Z,7.70
2023-02-13T07:17:36.333Z,7.60
2023-02-13T07:20:04.663Z,7.60
2023-02-13T07:22:33.159Z,7.50
2023-02-13T07:25:00.638Z,7.50
2023-02-13T07:27:32.593Z,7.50
2023-02-13T07:29:59.393Z,7.50
2023-02-13T07:32:26.358Z,7.50
2023-02-13T07:35:01.655Z,7.50
2023-02-13T07:37:30.677Z,7.60
2023-02-13T07:39:57.959Z,7.70
2023-02-13T07:42:24.830Z,7.70
2023-02-13T07:44:52.895Z,7.80
2023-02-13T07:47:20.355Z,8.00
2023-02-13T07:49:47.303Z,8.10
2023-02-13T07:52:14.089Z,8.20
2023-02-13T07:54:47.564Z,8.30
2023-02-13T07:57:15.455Z,8.40
2023-02-13T07:59:42.197Z,8.60
2023-02-13T08:02:14.696Z,8.70
2023-02-13T08:04:53.463Z,8.90
2023-02-13T08:07:24.199Z,9.10
2023-02-13T08:10:09.732Z,9.30
2023-02-13T08:12:38.169Z,9.40
2023-02-13T08:15:05.510Z,9.60
2023-02-13T08:17:32.272Z,9.80
2023-02-13T08:20:00.855Z,10.00
2023-02-13T08:22:27.638Z,10.10
2023-02-13T08:24:54.401Z,10.20
2023-02-13T08:27:21.233Z,10.20
2023-02-13T08:29:49.543Z,10.30
2023-02-13T08:32:16.346Z,10.40
2023-02-13T08:34:43.094Z,10.50
2023-02-13T08:37:09.897Z,10.60
2023-02-13T08:39:36.635Z,10.70
2023-02-13T08:42:04.125Z,10.80
2023-02-13T08:44:30.967Z,10.80
2023-02-13T08:46:57.703Z,10.90
2023-02-13T08:49:24.519Z,11.10
2023-02-13T08:51:51.535Z,11.30
2023-02-13T08:54:18.781Z,11.40
2023-02-13T08:56:45.696Z,11.40
2023-02-13T08:59:12.438Z,11.50
2023-02-13T09:01:39.305Z,11.40
2023-02-13T09:04:06.121Z,11.40
2023-02-13T09:06:32.908Z,11.40
2023-02-13T09:08:59.703Z,11.40
2023-02-13T09:11:26.544Z,11.40
2023-02-13T09:13:55.474Z,11.50
2023-02-13T09:16:22.307Z,11.60
2023-02-13T09:18:50.469Z,11.40
2023-02-13T09:21:19.076Z,11.30
2023-02-13T09:23:46.153Z,11.30
2023-02-13T09:26:14.706Z,11.50
2023-02-13T09:28:42.158Z,11.30
2023-02-13T09:31:11.542Z,11.40
2023-02-13T09:33:38.838Z,11.40
2023-02-13T09:36:07.737Z,11.40
2023-02-13T09:38:35.187Z,11.40
2023-02-13T09:41:29.224Z,11.30
2023-02-13T09:44:01.454Z,11.40
2023-02-13T09:46:35.743Z,11.40
2023-02-13T09:49:19.121Z,11.50
2023-02-13T09:51:52.924Z,11.60
2023-02-13T09:54:21.016Z,11.70
2023-02-13T09:57:00.945Z,11.70
2023-02-13T09:59:45.576Z,11.70
2023-02-13T10:02:41.308Z,11.70
2023-02-13T10:05:29.967Z,11.70
2023-02-13T10:08:04.195Z,11.70
2023-02-13T10:10:36.896Z,11.80
2023-02-13T10:13:42.731Z,11.80
2023-02-13T10:16:16.584Z,11.80
2023-02-13T10:18:55.822Z,11.80
2023-02-13T10:21:27.998Z,11.90
2023-02-13T10:23:59.958Z,11.80
2023-02-13T10:26:42.987Z,11.80
2023-02-13T10:29:39.811Z,11.80
2023-02-13T10:32:10.932Z,11.80
2023-02-13T10:34:43.940Z,11.60
2023-02-13T10:37:21.520Z,11.70
2023-02-13T10:39:50.666Z,11.80
2023-02-13T10:42:22.958Z,11.80
2023-02-13T10:45:20.401Z,11.90
2023-02-13T10:48:18.017Z,11.90
2023-02-13T10:50:56.950Z,12.00
2023-02-13T10:54:06.909Z,11.90
2023-02-13T10:56:55.517Z,12.00
2023-02-13T10:59:37.968Z,12.00
2023-02-13T11:02:26.218Z,12.00
2023-02-13T11:05:02.815Z,12.10
2023-02-13T11:07:31.364Z,12.10
2023-02-13T11:10:05.707Z,12.10
2023-02-13T11:12:34.420Z,12.10
2023-02-13T11:15:04.199Z,12.20
2023-02-13T11:17:36.994Z,12.20
2023-02-13T11:20:21.926Z,12.20
2023-02-13T11:22:49.453Z,12.30
2023-02-13T11:25:38.205Z,12.30
2023-02-13T11:28:19.037Z,12.30
2023-02-13T11:30:45.891Z,12.40
2023-02-13T11:33:26.933Z,12.40
2023-02-13T11:36:24.635Z,12.40
2023-02-13T11:39:06.341Z,12.20
2023-02-13T11:41:41.868Z,12.30
2023-02-13T11:44:23.656Z,12.40
2023-02-13T11:46:52.443Z,12.30
2023-02-13T11:49:21.354Z,12.30
2023-02-13T11:51:50.943Z,12.40
2023-02-13T11:54:40.724Z,12.40
2023-02-13T11:57:31.377Z,12.40
2023-02-13T11:59:59.059Z,12.50
2023-02-13T12:02:31.751Z,12.40
2023-02-13T12:05:30.771Z,12.50
2023-02-13T12:08:01.342Z,12.40
2023-02-13T12:10:33.965Z,12.50
2023-02-13T12:13:13.383Z,12.50
2023-02-13T12:15:40.502Z,12.50
2023-02-13T12:18:16.146Z,12.60
2023-02-13T12:20:51.899Z,12.60
2023-02-13T12:23:31.993Z,12.70
2023-02-13T12:26:12.284Z,12.70
2023-02-13T12:29:10.124Z,12.70
2023-02-13T12:32:01.849Z,12.70
2023-02-13T12:34:40.736Z,12.80
2023-02-13T12:37:25.271Z,12.80
2023-02-13T12:40:16.797Z,12.80
2023-02-13T12:42:52.916Z,12.90
2023-02-13T12:45:41.614Z,12.90
2023-02-13T12:48:52.634Z,12.90
2023-02-13T12:51:49.029Z,13.00
2023-02-13T12:54:46.120Z,13.00
2023-02-13T12:57:27.664Z,13.00
2023-02-13T13:00:19.840Z,13.00
2023-02-13T13:03:23.778Z,13.10
2023-02-13T13:06:03.589Z,13.10
2023-02-13T13:08:59.852Z,13.10
2023-02-13T13:11:48.603Z,13.10
2023-02-13T13:14:57.175Z,13.20
2023-02-13T13:17:35.703Z,13.20
2023-02-13T13:20:14.448Z,13.20
2023-02-13T13:22:54.821Z,13.30
2023-02-13T13:25:35.608Z,13.30
2023-02-13T13:28:15.694Z,13.30
2023-02-13T13:30:43.664Z,13.30
2023-02-13T13:33:25.373Z,13.40
2023-02-13T13:36:02.097Z,13.40
2023-02-13T13:38:51.901Z,13.40
2023-02-13T13:41:23.849Z,13.40
2023-02-13T13:44:19.602Z,13.50
2023-02-13T13:47:06.868Z,13.50
2023-02-13T13:49:52.767Z,13.50
2023-02-13T13:52:23.965Z,13.60
2023-02-13T13:54:52.595Z,13.60
2023-02-13T13:57:23.717Z,13.60
2023-02-13T13:59:59.258Z,13.60
2023-02-13T14:02:41.138Z,13.60
2023-02-13T14:05:13.556Z,13.60
2023-02-13T14:07:42.065Z,13.60
2023-02-13T14:10:35.268Z,13.70
2023-02-13T14:13:07.915Z,13.60
2023-02-13T14:15:37.798Z,13.60
2023-02-13T14:18:13.312Z,13.60
2023-02-13T14:20:44.432Z,13.60
2023-02-13T14:23:27.076Z,13.80
2023-02-13T14:26:15.080Z,13.70
2023-02-13T14:28:49.211Z,13.70
2023-02-13T14:31:16.959Z,13.70
2023-02-13T14:33:44.034Z,13.70
2023-02-13T14:36:30.205Z,13.70
2023-02-13T14:38:59.942Z,13.70
2023-02-13T14:41:56.030Z,13.70
2023-02-13T14:44:49.476Z,13.70
2023-02-13T14:47:40.643Z,13.70
2023-02-13T14:50:14.970Z,13.70
2023-02-13T14:52:46.860Z,13.70
2023-02-13T14:55:36.199Z,13.70
2023-02-13T14:58:12.664Z,13.80
2023-02-13T15:00:43.624Z,13.70
2023-02-13T15:03:44.315Z,13.70
2023-02-13T15:06:31.095Z,13.70
2023-02-13T15:09:02.123Z,13.70
2023-02-13T15:11:43.959Z,13.70
2023-02-13T15:14:33.655Z,13.70
2023-02-13T15:17:27.423Z,13.70
2023-02-13T15:19:56.217Z,13.70
2023-02-13T15:22:41.731Z,13.70
2023-02-13T15:25:09.656Z,13.70
2023-02-13T15:27:43.132Z,13.70
2023-02-13T15:30:19.141Z,13.60
2023-02-13T15:32:53.947Z,13.60
2023-02-13T15:35:26.788Z,13.60
2023-02-13T15:37:55.186Z,13.60
2023-02-13T15:40:25.396Z,13.60
2023-02-13T15:42:52.638Z,13.60
2023-02-13T15:45:22.003Z,13.50
2023-02-13T15:47:49.903Z,13.60
2023-02-13T15:50:19.598Z,13.50
2023-02-13T15:52:47.580Z,13.50
2023-02-13T15:55:29.480Z,13.60
2023-02-13T15:57:58.306Z,13.60
2023-02-13T16:00:39.239Z,13.60
2023-02-13T16:03:08.811Z,13.60
2023-02-13T16:05:41.384Z,13.50
2023-02-13T16:08:32.198Z,13.50
2023-02-13T16:11:16.984Z,13.50
2023-02-13T16:14:07.510Z,13.40
2023-02-13T16:16:43.957Z,13.40
2023-02-13T16:19:41.833Z,13.40
2023-02-13T16:22:25.968Z,13.30
2023-02-13T16:24:58.352Z,13.30
2023-02-13T16:27:28.402Z,13.30
2023-02-13T16:30:01.864Z,13.30
2023-02-13T16:32:31.934Z,13.30
2023-02-13T16:35:35.691Z,13.30
2023-02-13T16:38:03.193Z,13.30
2023-02-13T16:40:38.471Z,13.30
2023-02-13T16:43:45.152Z,13.20
2023-02-13T16:46:17.855Z,13.20
2023-02-13T16:48:48.975Z,13.20
2023-02-13T16:51:22.994Z,13.20
2023-02-13T16:54:03.860Z,13.10
2023-02-13T16:56:46.609Z,13.10
2023-02-13T16:59:24.763Z,13.00
2023-02-13T17:02:27.293Z,13.00
2023-02-13T17:05:18.522Z,13.00
2023-02-13T17:07:48.434Z,13.00
2023-02-13T17:10:33.963Z,13.00
2023-02-13T17:13:21.158Z,13.00
2023-02-13T17:15:48.898Z,13.00
2023-02-13T17:18:15.849Z,13.10
2023-02-13T17:20:45.249Z,13.00
2023-02-13T17:23:18.194Z,13.00
2023-02-13T17:25:47.461Z,13.00
2023-02-13T17:28:21.054Z,13.00
2023-02-13T17:30:50.582Z,13.00
2023-02-13T17:33:22.400Z,12.90
2023-02-13T17:35:50.825Z,12.90
2023-02-13T17:38:17.563Z,12.90
2023-02-13T17:40:44.752Z,12.90
2023-02-13T17:43:16.703Z,12.90
2023-02-13T17:45:44.679Z,12.70
2023-02-13T17:48:11.545Z,12.70
2023-02-13T17:50:38.902Z,12.70
2023-02-13T17:53:08.518Z,12.70
2023-02-13T17:55:37.292Z,12.70
2023-02-13T17:58:04.057Z,12.70
2023-02-13T18:00:33.998Z,12.70
2023-02-13T18:03:01.506Z,12.60
2023-02-13T18:05:29.035Z,12.60
2023-02-13T18:07:56.045Z,12.50
2023-02-13T18:10:26.229Z,12.50
2023-02-13T18:12:55.482Z,12.50
2023-02-13T18:15:25.058Z,12.50
2023-02-13T18:17:51.873Z,12.50
2023-02-13T18:20:23.977Z,12.40
2023-02-13T18:22:51.789Z,12.30
2023-02-13T18:25:22.064Z,12.30
2023-02-13T18:27:52.002Z,12.30
2023-02-13T18:30:20.481Z,12.30
2023-02-13T18:32:53.207Z,12.20
2023-02-13T18:35:20.406Z,12.20
2023-02-13T18:37:48.630Z,12.20
2023-02-13T18:40:17.165Z,12.20
2023-02-13T18:42:44.426Z,12.20
2023-02-13T18:45:12.616Z,12.10
2023-02-13T18:47:40.764Z,12.10
2023-02-13T18:50:08.471Z,12.10
2023-02-13T18:52:35.986Z,12.00
2023-02-13T18:55:03.494Z,12.00
2023-02-13T18:57:30.232Z,11.90
2023-02-13T18:59:57.036Z,11.90
2023-02-13T19:02:25.274Z,11.80
2023-02-13T19:04:53.243Z,11.80
2023-02-13T19:07:21.222Z,11.70
2023-02-13T19:09:48.710Z,11.70
2023-02-13T19:12:15.398Z,11.70
2023-02-13T19:14:44.757Z,11.70
2023-02-13T19:17:11.618Z,11.60
2023-02-13T19:19:38.519Z,11.50
2023-02-13T19:22:07.553Z,11.50
2023-02-13T19:24:34.299Z,11.50
2023-02-13T19:27:03.656Z,11.50
2023-02-13T19:29:32.235Z,11.40
2023-02-13T19:32:03.058Z,11.40
2023-02-13T19:34:29.846Z,11.40
2023-02-13T19:36:58.831Z,11.30
2023-02-13T19:39:25.571Z,11.30
2023-02-13T19:41:52.292Z,11.20
2023-02-13T19:44:19.257Z,11.20
2023-02-13T19:46:46.116Z,11.10
2023-02-13T19:49:31.759Z,11.10
2023-02-13T19:51:58.685Z,11.10
2023-02-13T19:54:26.795Z,11.10
2023-02-13T19:56:55.899Z,11.00
2023-02-13T19:59:23.369Z,10.90
2023-02-13T20:01:51.112Z,10.90
2023-02-13T20:04:19.716Z,10.80
2023-02-13T20:06:46.454Z,10.80
2023-02-13T20:09:14.220Z,10.70
2023-02-13T20:11:42.142Z,10.60
2023-02-13T20:14:14.978Z,10.50
2023-02-13T20:16:43.061Z,10.40
2023-02-13T20:19:13.722Z,10.40
2023-02-13T20:21:41.988Z,10.40
2023-02-13T20:24:09.734Z,10.40
2023-02-13T20:26:36.809Z,10.30
2023-02-13T20:29:03.806Z,10.30
2023-02-13T20:31:33.626Z,10.10
2023-02-13T20:34:00.966Z,10.10
2023-02-13T20:36:30.918Z,10.00
2023-02-13T20:39:03.458Z,10.00
2023-02-13T20:41:32.427Z,10.00
2023-02-13T20:44:01.191Z,10.00
2023-02-13T20:46:32.512Z,9.90
2023-02-13T20:48:59.307Z,9.90
2023-02-13T20:51:26.381Z,9.90
2023-02-13T20:53:54.111Z,9.80
2023-02-13T20:56:24.791Z,9.80
2023-02-13T20:58:54.994Z,9.80
2023-02-13T21:01:26.608Z,9.80
2023-02-13T21:03:54.994Z,9.80
2023-02-13T21:06:33.256Z,9.80
2023-02-13T21:09:01.105Z,9.80
2023-02-13T21:11:31.236Z,9.80
2023-02-13T21:13:58.985Z,9.70
2023-02-13T21:16:28.663Z,9.80
2023-02-13T21:18:57.836Z,9.80
2023-02-13T21:21:27.147Z,9.80
2023-02-13T21:23:56.170Z,9.80
2023-02-13T21:26:23.766Z,9.70
2023-02-13T21:28:53.449Z,9.70
2023-02-13T21:31:24.280Z,9.70
2023-02-13T21:33:52.030Z,9.70
2023-02-13T21:36:20.165Z,9.70
2023-02-13T21:38:46.873Z,9.70
2023-02-13T21:41:16.324Z,9.70
2023-02-13T21:43:46.766Z,9.70
2023-02-13T21:46:15.602Z,9.70
2023-02-13T21:48:43.462Z,9.70
2023-02-13T21:51:13.875Z,9.60
2023-02-13T21:53:41.005Z,9.60
2023-02-13T21:56:11.181Z,9.70
2023-02-13T21:58:42.263Z,9.60
2023-02-13T22:01:23.895Z,9.60
2023-02-13T22:03:52.654Z,9.60
2023-02-13T22:06:22.052Z,9.50
2023-02-13T22:08:55.351Z,9.50
2023-02-13T22:11:22.185Z,9.50
2023-02-13T22:13:55.594Z,9.50
2023-02-13T22:16:22.709Z,9.40
2023-02-13T22:18:52.930Z,9.50
2023-02-13T22:21:23.076Z,9.40
2023-02-13T22:23:51.630Z,9.40
2023-02-13T22:26:40.662Z,9.30
2023-02-13T22:29:14.255Z,9.30
2023-02-13T22:31:41.733Z,9.20
2023-02-13T22:34:11.428Z,9.20
2023-02-13T22:36:43.119Z,9.20
2023-02-13T22:39:11.053Z,9.20
2023-02-13T22:41:38.378Z,9.20
2023-02-13T22:44:06.098Z,9.10
2023-02-13T22:46:34.764Z,9.10
2023-02-13T22:49:01.714Z,9.10
2023-02-13T22:51:36.884Z,9.10
2023-02-13T22:54:04.862Z,9.10
2023-02-13T22:56:32.626Z,9.10
2023-02-13T22:59:03.803Z,9.10
2023-02-13T23:01:30.746Z,9.10
2023-02-13T23:03:59.120Z,9.10
2023-02-13T23:06:28.018Z,9.10
2023-02-13T23:08:56.361Z,9.00
2023-02-13T23:11:44.655Z,9.00
2023-02-13T23:14:12.806Z,9.00
2023-02-13T23:16:59.508Z,9.00
2023-02-13T23:19:28.224Z,9.00
2023-02-13T23:21:57.719Z,9.00
2023-02-13T23:24:25.140Z,8.90
2023-02-13T23:26:51.979Z,9.00
2023-02-13T23:29:20.284Z,8.90
2023-02-13T23:31:48.194Z,8.90
2023-02-13T23:34:14.984Z,8.90
2023-02-13T23:36:41.782Z,8.90
2023-02-13T23:39:08.570Z,8.90
2023-02-13T23:41:36.687Z,8.90
2023-02-13T23:44:03.480Z,8.80
2023-02-13T23:46:37.324Z,8.70
2023-02-13T23:49:06.065Z,8.70
2023-02-13T23:51:33.959Z,8.70
2023-02-13T23:54:02.242Z,8.70
2023-02-13T23:56:28.980Z,8.70
2023-02-13T23:58:56.603Z,8.60
